createdAt,value
2019-04-23T00:00:29.346Z,14.2145
2019-04-23T00:01:58.376Z,14.2866
2019-04-23T00:02:52.427Z,14.2866
2019-04-23T00:03:51.609Z,14.3854
2019-04-23T00:04:59.736Z,14.3561
2019-04-23T00:06:19.028Z,14.3694
2019-04-23T00:07:44.349Z,14.3133
2019-04-23T00:08:39.597Z,14.3427
2019-04-23T00:09:39.877Z,14.3294
2019-04-23T00:10:43.036Z,14.3000
2019-04-23T00:11:51.414Z,14.2866
2019-04-23T00:14:15.162Z,14.2306
2019-04-23T00:15:35.632Z,14.2145
2019-04-23T00:16:26.492Z,14.1585
2019-04-23T00:17:37.351Z,14.1878
2019-04-23T00:18:42.658Z,14.2573
2019-04-23T00:19:50.228Z,14.2573
2019-04-23T00:20:57.846Z,14.2573
2019-04-23T00:22:11.000Z,14.2306
2019-04-23T00:23:11.056Z,14.1585
2019-04-23T00:24:28.215Z,14.1451
2019-04-23T00:25:45.026Z,14.0757
2019-04-23T00:26:36.600Z,14.0169
2019-04-23T00:27:51.825Z,13.9609
2019-04-23T00:28:58.892Z,13.9208
2019-04-23T00:31:13.320Z,13.8220
2019-04-23T00:32:23.139Z,13.7472
2019-04-23T00:33:25.607Z,13.7045
2019-04-23T00:34:36.152Z,13.6778
2019-04-23T00:35:44.079Z,13.6217
2019-04-23T00:36:51.509Z,13.5924
2019-04-23T00:37:59.981Z,13.5657
2019-04-23T00:39:06.280Z,13.5229
2019-04-23T00:40:10.836Z,13.4936
2019-04-23T00:41:25.352Z,13.5363
2019-04-23T00:42:36.797Z,13.5496
2019-04-23T00:43:35.924Z,13.5069
2019-04-23T00:44:46.263Z,13.5657
2019-04-23T00:45:53.526Z,13.5069
2019-04-23T00:47:06.977Z,13.4936
2019-04-23T00:48:17.086Z,13.4802
2019-04-23T00:49:21.222Z,13.4375
2019-04-23T00:50:48.011Z,13.4241
2019-04-23T00:51:33.093Z,13.3680
2019-04-23T00:52:38.884Z,13.3387
2019-04-23T00:53:43.917Z,13.2826
2019-04-23T00:55:04.366Z,13.2532
2019-04-23T00:56:19.032Z,13.2532
2019-04-23T00:57:22.592Z,13.2399
2019-04-23T00:59:27.828Z,13.1704
2019-04-23T01:00:41.973Z,13.1838
2019-04-23T01:01:49.581Z,13.1411
2019-04-23T01:02:53.219Z,13.1277
2019-04-23T01:04:02.251Z,13.0957
2019-04-23T01:05:14.834Z,13.0957
2019-04-23T01:06:19.356Z,13.0957
2019-04-23T01:07:24.275Z,13.0957
2019-04-23T01:08:31.764Z,13.0396
2019-04-23T01:09:49.244Z,13.0262
2019-04-23T01:10:52.282Z,13.0129
2019-04-23T01:12:03.088Z,13.0129
2019-04-23T01:13:08.868Z,13.0129
2019-04-23T01:14:15.803Z,12.9835
2019-04-23T01:15:26.254Z,12.9835
2019-04-23T01:16:28.278Z,12.9408
2019-04-23T01:17:39.852Z,12.9274
2019-04-23T01:19:49.515Z,12.9141
2019-04-23T01:20:53.521Z,12.8714
2019-04-23T01:21:47.512Z,12.8580
2019-04-23T01:22:50.907Z,12.8420
2019-04-23T01:23:59.833Z,12.8847
2019-04-23T01:25:11.041Z,12.8714
2019-04-23T01:26:30.855Z,12.8714
2019-04-23T01:27:55.836Z,12.8714
2019-04-23T01:28:57.415Z,12.8714
2019-04-23T01:30:04.742Z,12.9274
2019-04-23T01:31:09.236Z,12.9408
2019-04-23T01:32:18.753Z,12.9702
2019-04-23T01:33:29.628Z,12.9969
2019-04-23T01:34:31.282Z,12.9408
2019-04-23T01:35:36.426Z,12.8981
2019-04-23T01:36:46.458Z,12.8847
2019-04-23T01:37:55.675Z,12.8580
2019-04-23T01:39:00.239Z,12.8286
2019-04-23T01:40:12.135Z,12.8286
2019-04-23T01:41:20.204Z,12.7859
2019-04-23T01:42:38.876Z,12.7859
2019-04-23T01:43:36.534Z,12.7993
2019-04-23T01:44:50.390Z,12.7592
2019-04-23T01:45:40.944Z,12.7726
2019-04-23T01:47:00.862Z,12.7993
2019-04-23T01:48:17.875Z,12.7726
2019-04-23T01:49:18.366Z,12.7726
2019-04-23T01:51:34.460Z,12.7432
2019-04-23T01:52:50.567Z,12.7298
2019-04-23T01:53:49.577Z,12.6604
2019-04-23T01:54:54.958Z,12.6444
2019-04-23T01:56:20.392Z,12.6043
2019-04-23T01:57:16.783Z,12.5883
2019-04-23T01:58:37.039Z,12.5883
2019-04-23T01:59:24.501Z,12.5055
2019-04-23T02:00:35.563Z,12.4895
2019-04-23T02:01:47.589Z,12.4762
2019-04-23T02:02:57.610Z,12.4628
2019-04-23T02:04:03.557Z,12.4201
2019-04-23T02:06:16.646Z,12.4201
2019-04-23T02:07:29.564Z,12.4201
2019-04-23T02:08:28.364Z,12.3747
2019-04-23T02:09:43.490Z,12.4201
2019-04-23T02:10:53.633Z,12.4334
2019-04-23T02:11:57.759Z,12.4628
2019-04-23T02:15:24.994Z,12.5456
2019-04-23T02:16:32.776Z,12.5456
2019-04-23T02:17:38.639Z,12.5750
2019-04-23T02:18:44.152Z,12.5616
2019-04-23T02:19:51.753Z,12.5750
2019-04-23T02:20:59.503Z,12.5189
2019-04-23T02:22:05.022Z,12.4762
2019-04-23T02:23:19.878Z,12.4334
2019-04-23T02:24:24.738Z,12.3880
2019-04-23T02:26:38.476Z,12.3613
2019-04-23T02:27:54.414Z,12.3613
2019-04-23T02:30:15.529Z,12.3186
2019-04-23T02:34:51.571Z,12.3053
2019-04-23T02:35:55.771Z,12.2759
2019-04-23T02:37:03.852Z,12.2625
2019-04-23T02:39:00.967Z,12.3480
2019-04-23T02:40:35.375Z,12.3480
2019-04-23T02:41:41.594Z,12.3613
2019-04-23T02:42:55.880Z,12.3747
2019-04-23T02:43:35.508Z,12.3480
2019-04-23T02:44:56.285Z,12.3320
2019-04-23T02:47:29.711Z,12.3053
2019-04-23T02:49:26.955Z,12.2759
2019-04-23T02:52:48.811Z,12.2065
2019-04-23T02:54:04.644Z,12.2065
2019-04-23T02:55:08.723Z,12.1771
2019-04-23T02:56:28.878Z,12.1504
2019-04-23T02:57:20.134Z,12.1344
2019-04-23T02:59:53.785Z,12.0943
2019-04-23T03:01:06.418Z,12.0649
2019-04-23T03:05:38.038Z,12.0089
2019-04-23T03:07:41.007Z,12.0356
2019-04-23T03:09:51.725Z,11.9795
2019-04-23T03:11:20.714Z,11.9795
2019-04-23T03:12:24.888Z,11.9795
2019-04-23T03:16:48.191Z,11.9955
2019-04-23T03:17:49.276Z,11.9955
2019-04-23T03:18:57.597Z,11.9955
2019-04-23T03:20:11.189Z,11.9661
2019-04-23T03:22:14.738Z,12.0356
2019-04-23T03:23:34.530Z,12.0649
2019-04-23T03:24:45.833Z,12.0649
2019-04-23T03:25:35.869Z,12.1344
2019-04-23T03:29:15.858Z,12.1771
2019-04-23T03:32:48.379Z,12.2759
2019-04-23T03:34:42.467Z,12.2759
2019-04-23T03:38:18.878Z,12.2625
2019-04-23T03:39:18.717Z,12.2759
2019-04-23T03:40:43.137Z,12.2625
2019-04-23T03:42:43.102Z,12.2759
2019-04-23T03:47:18.543Z,12.3480
2019-04-23T03:48:28.672Z,12.3053
2019-04-23T03:49:32.853Z,12.2332
2019-04-23T03:50:36.015Z,12.2492
2019-04-23T03:51:52.269Z,12.2492
2019-04-23T03:52:44.674Z,12.2198
2019-04-23T03:55:10.264Z,12.2065
2019-04-23T03:56:26.552Z,12.1771
2019-04-23T03:57:26.945Z,12.1771
2019-04-23T04:01:07.179Z,12.1904
2019-04-23T04:03:27.016Z,12.1904
2019-04-23T04:05:31.406Z,12.2198
2019-04-23T04:08:50.727Z,12.2065
2019-04-23T04:11:25.708Z,12.1210
2019-04-23T04:12:19.139Z,12.1077
2019-04-23T04:13:22.222Z,12.1344
2019-04-23T04:15:53.327Z,12.1077
2019-04-23T04:16:51.069Z,12.1077
2019-04-23T04:18:03.849Z,12.1077
2019-04-23T04:21:28.138Z,12.0783
2019-04-23T04:22:37.490Z,12.0649
2019-04-23T04:23:37.767Z,12.0783
2019-04-23T04:25:08.803Z,12.0783
2019-04-23T04:25:47.681Z,12.0649
2019-04-23T04:29:11.664Z,12.0356
2019-04-23T04:30:21.578Z,12.0516
2019-04-23T04:31:37.438Z,12.1210
2019-04-23T04:32:42.814Z,12.1344
2019-04-23T04:35:14.130Z,12.1077
2019-04-23T04:36:09.496Z,12.1210
2019-04-23T04:38:34.883Z,12.0943
2019-04-23T04:39:26.636Z,12.0943
2019-04-23T04:40:45.670Z,12.1077
2019-04-23T04:41:44.479Z,12.0943
2019-04-23T04:43:02.015Z,12.0783
2019-04-23T04:44:04.909Z,12.0356
2019-04-23T04:45:13.631Z,12.0516
2019-04-23T04:46:21.203Z,12.0649
2019-04-23T04:47:33.888Z,12.0222
2019-04-23T04:49:48.611Z,12.0356
2019-04-23T04:52:03.167Z,12.0089
2019-04-23T04:53:09.892Z,11.9661
2019-04-23T04:54:21.516Z,11.9955
2019-04-23T04:55:21.515Z,11.9795
2019-04-23T04:57:37.241Z,11.9661
2019-04-23T05:05:55.531Z,11.9528
2019-04-23T05:06:46.484Z,11.8967
2019-04-23T05:08:56.614Z,11.9234
2019-04-23T05:14:35.415Z,11.9955
2019-04-23T05:15:39.075Z,12.0222
2019-04-23T05:18:00.307Z,12.0089
2019-04-23T05:22:26.768Z,11.9955
2019-04-23T05:23:33.438Z,11.9795
2019-04-23T05:25:44.742Z,11.9955
2019-04-23T05:26:53.369Z,11.9661
2019-04-23T05:30:22.610Z,11.9528
2019-04-23T05:31:23.261Z,11.9795
2019-04-23T05:32:36.737Z,11.9661
2019-04-23T05:33:46.471Z,11.9661
2019-04-23T05:34:48.321Z,11.9795
2019-04-23T05:36:22.849Z,11.9661
2019-04-23T05:37:06.463Z,11.9955
2019-04-23T05:38:29.200Z,11.9795
2019-04-23T05:39:31.314Z,11.9955
2019-04-23T05:40:37.953Z,12.0089
2019-04-23T05:42:46.842Z,11.9955
2019-04-23T05:45:00.595Z,12.0943
2019-04-23T05:46:17.957Z,12.1077
2019-04-23T05:47:25.473Z,12.0943
2019-04-23T05:48:23.370Z,12.0943
2019-04-23T05:49:31.664Z,12.0943
2019-04-23T05:50:50.577Z,12.1077
2019-04-23T05:51:57.680Z,12.0943
2019-04-23T05:53:05.915Z,12.0649
2019-04-23T05:54:09.118Z,12.0649
2019-04-23T05:55:13.658Z,12.1077
2019-04-23T05:56:24.269Z,12.1210
2019-04-23T05:57:40.372Z,12.1077
2019-04-23T05:58:43.706Z,12.0783
2019-04-23T05:59:51.654Z,12.1210
2019-04-23T06:01:11.430Z,12.1344
2019-04-23T06:02:18.247Z,12.1344
2019-04-23T06:03:16.003Z,12.1904
2019-04-23T06:04:27.099Z,12.2065
2019-04-23T06:05:34.266Z,12.2625
2019-04-23T06:07:49.417Z,12.2759
2019-04-23T06:11:16.989Z,12.3613
2019-04-23T06:12:13.568Z,12.3613
2019-04-23T06:13:26.345Z,12.3880
2019-04-23T06:14:41.030Z,12.3880
2019-04-23T06:15:57.783Z,12.4201
2019-04-23T06:17:02.133Z,12.4334
2019-04-23T06:18:02.245Z,12.5055
2019-04-23T06:20:24.978Z,12.5189
2019-04-23T06:21:25.264Z,12.5456
2019-04-23T06:22:35.211Z,12.5883
2019-04-23T06:23:43.677Z,12.6043
2019-04-23T06:24:45.153Z,12.6043
2019-04-23T06:27:06.747Z,12.6043
2019-04-23T06:28:14.518Z,12.6310
2019-04-23T06:30:34.251Z,12.6738
2019-04-23T06:31:40.879Z,12.7298
2019-04-23T06:32:44.763Z,12.7592
2019-04-23T06:33:54.541Z,12.7859
2019-04-23T06:34:58.167Z,12.8286
2019-04-23T06:37:22.172Z,12.8286
2019-04-23T06:38:46.098Z,12.8580
2019-04-23T06:39:39.639Z,12.8580
2019-04-23T06:40:44.949Z,12.8714
2019-04-23T06:41:52.776Z,12.8981
2019-04-23T06:43:01.274Z,12.8714
2019-04-23T06:45:06.263Z,12.9274
2019-04-23T06:46:20.142Z,12.9702
2019-04-23T06:47:27.739Z,12.9969
2019-04-23T06:48:34.870Z,12.9969
2019-04-23T06:49:44.172Z,13.0129
2019-04-23T06:50:59.265Z,12.9835
2019-04-23T06:53:08.129Z,13.0690
2019-04-23T06:54:19.068Z,13.0957
2019-04-23T06:55:25.499Z,13.1411
2019-04-23T06:56:37.491Z,13.1411
2019-04-23T06:57:38.185Z,13.1838
2019-04-23T06:58:43.259Z,13.2265
2019-04-23T06:59:59.195Z,13.2265
2019-04-23T07:02:17.084Z,13.2532
2019-04-23T07:03:23.277Z,13.2960
2019-04-23T07:05:40.938Z,13.3253
2019-04-23T07:06:47.187Z,13.3387
2019-04-23T07:07:58.369Z,13.3948
2019-04-23T07:09:07.867Z,13.4081
2019-04-23T07:10:03.945Z,13.4669
2019-04-23T07:11:23.615Z,13.4669
2019-04-23T07:12:21.977Z,13.5363
2019-04-23T07:13:45.001Z,13.5496
2019-04-23T07:14:47.678Z,13.5363
2019-04-23T07:16:52.559Z,13.6217
2019-04-23T07:18:04.047Z,13.6217
2019-04-23T07:19:18.576Z,13.6351
2019-04-23T07:20:21.565Z,13.6057
2019-04-23T07:22:46.879Z,13.6057
2019-04-23T07:23:53.884Z,13.6217
2019-04-23T07:24:57.590Z,13.6217
2019-04-23T07:26:09.308Z,13.6217
2019-04-23T07:27:03.270Z,13.6618
2019-04-23T07:28:18.020Z,13.7205
2019-04-23T07:29:25.343Z,13.7472
2019-04-23T07:31:46.040Z,13.7045
2019-04-23T07:32:49.598Z,13.6912
2019-04-23T07:34:01.061Z,13.7339
2019-04-23T07:35:10.443Z,13.7472
2019-04-23T07:36:17.566Z,13.8060
2019-04-23T07:37:19.004Z,13.8220
2019-04-23T07:38:41.711Z,13.8354
2019-04-23T07:39:45.653Z,13.8621
2019-04-23T07:40:41.126Z,13.8354
2019-04-23T07:41:56.815Z,13.8487
2019-04-23T07:43:03.442Z,13.8914
2019-04-23T07:44:12.822Z,13.8354
2019-04-23T07:45:19.320Z,13.8781
2019-04-23T07:46:55.679Z,13.8487
2019-04-23T07:47:33.704Z,13.8621
2019-04-23T07:48:34.401Z,13.9048
2019-04-23T07:50:01.844Z,13.9208
2019-04-23T07:50:55.630Z,13.9609
2019-04-23T07:52:11.004Z,13.9769
2019-04-23T07:54:22.755Z,13.9902
2019-04-23T07:55:34.564Z,14.0330
2019-04-23T07:56:37.288Z,14.0036
2019-04-23T07:57:52.124Z,14.0757
2019-04-23T07:58:44.765Z,14.1318
2019-04-23T08:00:02.417Z,14.1318
2019-04-23T08:01:06.931Z,14.1745
2019-04-23T08:02:23.473Z,14.2012
2019-04-23T08:03:27.359Z,14.1585
2019-04-23T08:04:39.441Z,14.2145
2019-04-23T08:05:38.693Z,14.3427
2019-04-23T08:06:46.434Z,14.3694
2019-04-23T08:07:58.779Z,14.4869
2019-04-23T08:09:02.344Z,14.5430
2019-04-23T08:10:18.914Z,14.5697
2019-04-23T08:11:33.210Z,14.6124
2019-04-23T08:12:31.535Z,14.7246
2019-04-23T08:13:42.042Z,14.7246
2019-04-23T08:14:48.146Z,14.7673
2019-04-23T08:15:53.932Z,14.7967
2019-04-23T08:17:02.077Z,14.7539
2019-04-23T08:18:13.689Z,14.8661
2019-04-23T08:19:15.445Z,14.8527
2019-04-23T08:20:32.286Z,15.0076
2019-04-23T08:22:40.643Z,15.1652
2019-04-23T08:23:49.120Z,15.2213
2019-04-23T08:25:12.833Z,15.2934
2019-04-23T08:26:13.828Z,15.3895
2019-04-23T08:27:12.922Z,15.4616
2019-04-23T08:28:34.032Z,15.4883
2019-04-23T08:30:33.305Z,15.5871
2019-04-23T08:31:52.775Z,15.6298
2019-04-23T08:32:52.136Z,15.6859
2019-04-23T08:34:05.758Z,15.7019
2019-04-23T08:35:06.377Z,15.7580
2019-04-23T08:36:23.746Z,15.7019
2019-04-23T08:37:36.034Z,15.7580
2019-04-23T08:40:57.533Z,15.9983
2019-04-23T08:43:07.531Z,16.0704
2019-04-23T08:44:23.977Z,16.1265
2019-04-23T08:46:33.049Z,16.3935
2019-04-23T08:47:37.749Z,16.4496
2019-04-23T08:50:09.591Z,16.5084
2019-04-23T08:50:57.917Z,16.6659
2019-04-23T08:52:12.178Z,16.7781
2019-04-23T08:53:29.659Z,16.7220
2019-04-23T08:54:37.060Z,16.7220
2019-04-23T08:56:50.025Z,16.9036
2019-04-23T08:57:45.352Z,16.9329
2019-04-23T08:58:59.330Z,17.0317
2019-04-23T09:00:04.015Z,17.0024
2019-04-23T09:01:10.668Z,17.0878
2019-04-23T09:02:30.568Z,16.9596
2019-04-23T09:04:42.069Z,17.1172
2019-04-23T09:05:52.670Z,17.1733
2019-04-23T09:07:00.161Z,17.2747
2019-04-23T09:08:07.195Z,17.2587
2019-04-23T09:09:16.054Z,17.4430
2019-04-23T09:10:20.841Z,17.4723
2019-04-23T09:11:41.054Z,17.6966
2019-04-23T09:12:35.112Z,17.8809
2019-04-23T09:14:51.236Z,18.1079
2019-04-23T09:15:55.889Z,18.1640
2019-04-23T09:17:06.881Z,18.1373
2019-04-23T09:18:16.036Z,18.1773
2019-04-23T09:19:23.284Z,18.3616
2019-04-23T09:21:32.720Z,18.4176
2019-04-23T09:24:03.844Z,18.5031
2019-04-23T09:25:06.024Z,18.5031
2019-04-23T09:26:02.254Z,18.5725
2019-04-23T09:27:22.169Z,18.3749
2019-04-23T09:28:38.591Z,18.2067
2019-04-23T09:29:42.449Z,18.2628
2019-04-23T09:30:42.926Z,18.2494
2019-04-23T09:33:02.421Z,18.0945
2019-04-23T09:34:08.004Z,18.0785
2019-04-23T09:35:20.194Z,18.2494
2019-04-23T09:36:22.372Z,18.3349
2019-04-23T09:38:31.892Z,18.3909
2019-04-23T09:41:08.720Z,18.3616
2019-04-23T09:42:02.328Z,18.4897
2019-04-23T09:45:28.086Z,18.1933
2019-04-23T09:46:32.596Z,18.3616
2019-04-23T09:47:48.296Z,18.3616
2019-04-23T09:48:54.693Z,18.2361
2019-04-23T09:50:06.461Z,18.3188
2019-04-23T09:51:02.450Z,18.3482
2019-04-23T09:52:14.611Z,18.3749
2019-04-23T09:53:24.762Z,18.3909
2019-04-23T09:54:37.874Z,18.2628
2019-04-23T09:58:00.630Z,18.0785
2019-04-23T09:59:08.836Z,18.2200
2019-04-23T10:00:10.752Z,18.1640
2019-04-23T10:01:20.500Z,18.1933
2019-04-23T10:02:17.510Z,18.1773
2019-04-23T10:03:21.144Z,18.2067
2019-04-23T10:04:28.155Z,18.2361
2019-04-23T10:05:32.585Z,18.2067
2019-04-23T10:06:34.553Z,18.2200
2019-04-23T10:07:48.630Z,18.4043
2019-04-23T10:08:52.249Z,18.5031
2019-04-23T10:09:53.532Z,18.5298
2019-04-23T10:10:57.475Z,18.5592
2019-04-23T10:12:00.992Z,18.5885
2019-04-23T10:13:04.377Z,18.4897
2019-04-23T10:14:08.281Z,18.2361
2019-04-23T10:15:21.522Z,18.4310
2019-04-23T10:16:21.439Z,18.4176
2019-04-23T10:17:28.490Z,18.6046
2019-04-23T10:18:31.311Z,18.5298
2019-04-23T10:19:35.037Z,18.6900
2019-04-23T10:20:38.588Z,18.3749
2019-04-23T10:21:43.653Z,18.3909
2019-04-23T10:22:48.240Z,18.3482
2019-04-23T10:23:51.653Z,18.2761
2019-04-23T10:24:55.395Z,18.5298
2019-04-23T10:25:58.362Z,18.6606
2019-04-23T10:27:01.986Z,18.7728
2019-04-23T10:28:08.634Z,18.8582
2019-04-23T10:29:14.049Z,18.6046
2019-04-23T10:30:17.749Z,18.5725
2019-04-23T10:31:22.767Z,18.5298
2019-04-23T10:32:27.324Z,18.4043
2019-04-23T10:33:31.682Z,18.5885
2019-04-23T10:34:47.533Z,18.7461
2019-04-23T10:35:51.521Z,18.6473
2019-04-23T10:36:51.571Z,18.7167
2019-04-23T10:38:03.722Z,18.8849
2019-04-23T10:39:10.630Z,19.0692
2019-04-23T10:40:15.383Z,19.2374
2019-04-23T10:41:20.175Z,19.4377
2019-04-23T10:42:24.701Z,19.6353
2019-04-23T10:43:30.775Z,19.8196
2019-04-23T10:44:35.371Z,19.9905
2019-04-23T10:45:53.874Z,20.1320
2019-04-23T10:47:12.237Z,19.9451
2019-04-23T10:48:31.500Z,19.9184
2019-04-23T10:50:46.166Z,19.8623
2019-04-23T10:51:55.052Z,19.9611
2019-04-23T10:53:05.120Z,20.0332
2019-04-23T10:55:07.933Z,20.1881
2019-04-23T10:56:22.352Z,20.2575
2019-04-23T10:57:23.183Z,20.2174
2019-04-23T10:58:35.286Z,20.2735
2019-04-23T11:00:55.664Z,20.1881
2019-04-23T11:02:15.623Z,20.1186
2019-04-23T11:03:20.344Z,20.2869
2019-04-23T11:04:32.858Z,20.4150
2019-04-23T11:05:30.392Z,20.4711
2019-04-23T11:06:47.171Z,20.5726
2019-04-23T11:08:45.540Z,20.0893
2019-04-23T11:09:58.702Z,20.2869
2019-04-23T11:11:07.952Z,20.4284
2019-04-23T11:12:23.413Z,20.4150
2019-04-23T11:13:25.669Z,20.6714
2019-04-23T11:14:37.718Z,20.7542
2019-04-23T11:19:10.552Z,21.0960
2019-04-23T11:20:17.669Z,21.1654
2019-04-23T11:21:20.751Z,21.4618
2019-04-23T11:23:30.909Z,21.5473
2019-04-23T11:24:42.103Z,21.2936
2019-04-23T11:25:42.826Z,21.6754
2019-04-23T11:26:58.003Z,21.7475
2019-04-23T11:28:11.038Z,21.5339
2019-04-23T11:29:16.379Z,21.6060
2019-04-23T11:30:27.452Z,21.5045
2019-04-23T11:31:41.467Z,21.6754
2019-04-23T11:32:47.119Z,21.6060
2019-04-23T11:33:42.695Z,21.8170
2019-04-23T11:36:18.967Z,21.9852
2019-04-23T11:37:12.914Z,22.0867
2019-04-23T11:38:43.631Z,21.9852
2019-04-23T11:39:23.971Z,21.8170
2019-04-23T11:40:32.817Z,22.0279
2019-04-23T11:41:49.011Z,22.2149
2019-04-23T11:42:49.445Z,21.6621
2019-04-23T11:43:53.431Z,21.7475
2019-04-23T11:45:09.607Z,21.1814
2019-04-23T11:46:32.664Z,21.2081
2019-04-23T11:48:51.966Z,21.6060
2019-04-23T11:52:09.747Z,21.5339
2019-04-23T11:52:57.138Z,21.7903
2019-04-23T11:54:11.614Z,21.6327
2019-04-23T11:55:26.136Z,21.6621
2019-04-23T11:57:02.696Z,21.5606
2019-04-23T11:59:55.046Z,21.6194
2019-04-23T12:01:03.167Z,21.7182
2019-04-23T12:02:01.148Z,21.4057
2019-04-23T12:03:02.501Z,21.1654
2019-04-23T12:04:39.590Z,21.0639
2019-04-23T12:05:37.129Z,21.2215
2019-04-23T12:06:36.948Z,21.2642
2019-04-23T12:08:03.851Z,21.2642
2019-04-23T12:08:50.998Z,21.3203
2019-04-23T12:11:35.426Z,20.9651
2019-04-23T12:12:21.720Z,21.2215
2019-04-23T12:13:28.655Z,21.3363
2019-04-23T12:14:37.314Z,21.5606
2019-04-23T12:15:37.586Z,21.2642
2019-04-23T12:17:05.613Z,21.4752
2019-04-23T12:18:05.357Z,21.7182
2019-04-23T12:19:28.403Z,21.8036
2019-04-23T12:20:13.536Z,21.7742
2019-04-23T12:21:22.115Z,21.7315
2019-04-23T12:22:33.412Z,21.8036
2019-04-23T12:23:48.559Z,22.1454
2019-04-23T12:25:58.613Z,22.3991
2019-04-23T12:27:00.698Z,22.6261
2019-04-23T12:28:06.603Z,22.5834
2019-04-23T12:29:23.735Z,22.8103
2019-04-23T12:30:30.152Z,22.4819
2019-04-23T12:31:34.836Z,22.6822
2019-04-23T12:33:53.599Z,22.9652
2019-04-23T12:36:05.317Z,22.9358
2019-04-23T12:37:19.632Z,22.8931
2019-04-23T12:38:31.234Z,22.9786
2019-04-23T12:39:45.451Z,22.5113
2019-04-23T12:40:37.843Z,22.6127
2019-04-23T12:41:43.306Z,22.9358
2019-04-23T12:43:57.945Z,23.0480
2019-04-23T12:45:16.976Z,23.3337
2019-04-23T12:46:17.693Z,23.1067
2019-04-23T12:47:37.960Z,22.6554
2019-04-23T12:52:02.448Z,22.5834
2019-04-23T12:53:27.064Z,22.6688
2019-04-23T12:54:20.791Z,22.7943
2019-04-23T12:55:36.215Z,22.5540
2019-04-23T12:56:41.588Z,22.3270
2019-04-23T12:58:34.064Z,22.4685
2019-04-23T12:59:50.071Z,22.6394
2019-04-23T13:01:07.216Z,22.7542
2019-04-23T13:02:16.401Z,23.1361
2019-04-23T13:03:21.593Z,22.6127
2019-04-23T13:04:24.616Z,23.0346
2019-04-23T13:06:41.030Z,22.8504
2019-04-23T13:08:54.577Z,22.8103
2019-04-23T13:11:16.265Z,23.7316
2019-04-23T13:12:32.625Z,23.3043
2019-04-23T13:13:28.575Z,23.0480
2019-04-23T13:14:44.062Z,23.2216
2019-04-23T13:15:40.685Z,23.1655
2019-04-23T13:17:02.054Z,23.4192
2019-04-23T13:19:13.922Z,23.6194
2019-04-23T13:21:46.246Z,23.7022
2019-04-23T13:22:45.886Z,23.8731
2019-04-23T13:24:49.009Z,23.3604
2019-04-23T13:27:15.209Z,24.0547
2019-04-23T13:28:27.692Z,23.8571
2019-04-23T13:29:32.438Z,23.5019
2019-04-23T13:30:44.741Z,23.1655
2019-04-23T13:31:28.968Z,23.6755
2019-04-23T13:33:51.509Z,23.1067
2019-04-23T13:35:15.052Z,22.5834
2019-04-23T13:37:26.225Z,23.2643
2019-04-23T13:38:35.025Z,23.4752
2019-04-23T13:39:35.318Z,22.8237
2019-04-23T13:41:47.770Z,23.0213
2019-04-23T13:43:01.145Z,22.8103
2019-04-23T13:43:53.013Z,23.0800
2019-04-23T13:45:33.346Z,23.4325
2019-04-23T13:46:17.792Z,23.5180
2019-04-23T13:47:38.495Z,23.3471
2019-04-23T13:48:35.950Z,23.5767
2019-04-23T13:49:52.738Z,23.4031
2019-04-23T13:52:06.190Z,23.8731
2019-04-23T13:53:28.979Z,23.9292
2019-04-23T13:54:27.761Z,23.5180
2019-04-23T13:55:21.750Z,23.5767
2019-04-23T13:58:05.050Z,23.0800
2019-04-23T13:58:51.609Z,23.3204
2019-04-23T13:59:56.248Z,22.9919
2019-04-23T14:01:25.931Z,22.8237
2019-04-23T14:02:24.063Z,23.3471
2019-04-23T14:03:30.320Z,23.2776
2019-04-23T14:04:43.174Z,23.5180
2019-04-23T14:06:47.513Z,24.0867
2019-04-23T14:07:54.779Z,23.0480
2019-04-23T14:08:59.689Z,23.3764
2019-04-23T14:12:35.183Z,22.7382
2019-04-23T14:14:47.571Z,23.4325
2019-04-23T14:15:54.091Z,23.1495
2019-04-23T14:17:04.532Z,22.9652
2019-04-23T14:18:48.953Z,22.8931
2019-04-23T14:19:06.897Z,23.8010
2019-04-23T14:20:21.598Z,24.0120
2019-04-23T14:21:39.166Z,23.8731
2019-04-23T14:24:08.748Z,23.7743
2019-04-23T14:25:04.634Z,23.1495
2019-04-23T14:27:17.908Z,23.5313
2019-04-23T14:28:22.161Z,23.8865
2019-04-23T14:29:30.607Z,23.4752
2019-04-23T14:30:38.993Z,23.5447
2019-04-23T14:32:54.303Z,22.9091
2019-04-23T14:35:21.596Z,23.2055
2019-04-23T14:36:17.670Z,23.3043
2019-04-23T14:37:17.230Z,23.1495
2019-04-23T14:39:40.999Z,23.3764
2019-04-23T14:41:53.680Z,23.0667
2019-04-23T14:43:08.844Z,23.2216
2019-04-23T14:44:11.055Z,23.2776
2019-04-23T14:45:29.692Z,22.9091
2019-04-23T14:47:38.132Z,22.3404
2019-04-23T14:48:47.975Z,22.5246
2019-04-23T14:49:59.431Z,22.4392
2019-04-23T14:50:56.913Z,22.4819
2019-04-23T14:52:09.281Z,22.6688
2019-04-23T14:54:35.831Z,22.6394
2019-04-23T14:56:38.378Z,22.3831
2019-04-23T14:57:52.840Z,22.7382
2019-04-23T14:59:04.720Z,22.4685
2019-04-23T15:00:03.385Z,22.3991
2019-04-23T15:01:22.236Z,22.4685
2019-04-23T15:02:22.928Z,22.5834
2019-04-23T15:03:32.541Z,22.5540
2019-04-23T15:04:34.034Z,22.6955
2019-04-23T15:05:52.767Z,22.7115
2019-04-23T15:08:02.145Z,22.2709
2019-04-23T15:10:18.563Z,22.5967
2019-04-23T15:13:36.849Z,22.9358
2019-04-23T15:14:56.307Z,22.9225
2019-04-23T15:16:03.128Z,23.4459
2019-04-23T15:17:00.461Z,22.8237
2019-04-23T15:18:14.109Z,22.5380
2019-04-23T15:20:23.115Z,22.7943
2019-04-23T15:21:45.273Z,23.0213
2019-04-23T15:22:54.453Z,23.2055
2019-04-23T15:25:09.377Z,23.0079
2019-04-23T15:26:49.495Z,23.2643
2019-04-23T15:28:07.604Z,22.7810
2019-04-23T15:29:12.885Z,23.0346
2019-04-23T15:30:35.555Z,23.0934
2019-04-23T15:31:52.422Z,23.0213
2019-04-23T15:33:04.207Z,23.1067
2019-04-23T15:34:09.288Z,23.6194
2019-04-23T15:35:23.437Z,22.9091
2019-04-23T15:38:55.857Z,22.6261
2019-04-23T15:40:53.352Z,22.4552
2019-04-23T15:43:17.236Z,22.6127
2019-04-23T15:45:21.007Z,22.4952
2019-04-23T15:46:32.684Z,22.3991
2019-04-23T15:47:40.489Z,22.3564
2019-04-23T15:48:58.125Z,22.4258
2019-04-23T15:50:03.598Z,22.3991
2019-04-23T15:51:04.378Z,22.4685
2019-04-23T15:53:24.915Z,22.4392
2019-04-23T15:54:25.415Z,22.5834
2019-04-23T15:55:28.209Z,22.5834
2019-04-23T15:56:41.017Z,22.5113
2019-04-23T15:59:58.702Z,22.7810
2019-04-23T16:01:15.557Z,22.8798
2019-04-23T16:01:52.332Z,22.6127
2019-04-23T16:02:55.306Z,22.8798
2019-04-23T16:03:59.127Z,22.7249
2019-04-23T16:05:03.652Z,22.6822
2019-04-23T16:06:10.316Z,22.7382
2019-04-23T16:07:32.581Z,22.6688
2019-04-23T16:08:58.945Z,22.5700
2019-04-23T16:10:04.242Z,22.5113
2019-04-23T16:11:15.708Z,22.6261
2019-04-23T16:12:03.419Z,22.6688
2019-04-23T16:13:31.145Z,22.9652
2019-04-23T16:14:35.362Z,22.8237
2019-04-23T16:15:45.402Z,22.8370
2019-04-23T16:18:06.552Z,22.6394
2019-04-23T16:19:07.620Z,23.1788
2019-04-23T16:20:22.193Z,22.9919
2019-04-23T16:22:24.861Z,22.7676
2019-04-23T16:23:38.270Z,22.7382
2019-04-23T16:24:52.254Z,22.7676
2019-04-23T16:25:49.797Z,22.6822
2019-04-23T16:27:04.435Z,22.6127
2019-04-23T16:28:11.543Z,22.6554
2019-04-23T16:30:36.811Z,22.6822
2019-04-23T16:31:38.046Z,22.6688
2019-04-23T16:32:38.046Z,22.5113
2019-04-23T16:33:47.947Z,22.6554
2019-04-23T16:35:06.757Z,22.5967
2019-04-23T16:36:19.208Z,22.1855
2019-04-23T16:37:15.436Z,22.2282
2019-04-23T16:39:24.161Z,22.1454
2019-04-23T16:41:51.649Z,22.0733
2019-04-23T16:42:56.684Z,22.0867
2019-04-23T16:44:09.506Z,21.9718
2019-04-23T16:45:14.976Z,22.0146
2019-04-23T16:46:21.340Z,22.1160
2019-04-23T16:47:24.223Z,22.1588
2019-04-23T16:48:44.093Z,22.0733
2019-04-23T16:49:48.020Z,22.1588
2019-04-23T16:51:54.184Z,22.1721
2019-04-23T16:53:11.568Z,22.2149
2019-04-23T16:54:14.124Z,22.1721
2019-04-23T16:55:19.963Z,22.1454
2019-04-23T17:00:08.190Z,22.0146
2019-04-23T17:01:07.262Z,22.1294
2019-04-23T17:02:17.617Z,22.0867
2019-04-23T17:03:28.954Z,22.0573
2019-04-23T17:04:24.310Z,22.1027
2019-04-23T17:05:33.327Z,22.0279
2019-04-23T17:06:35.812Z,22.0573
2019-04-23T17:08:08.365Z,22.1294